Time;durP1;ratioP1;P1;durP2;ratioP2;P2;SDS_P1;SDS_P2;PMS_P1;PMS_P2;Temp;Humidity;BMP_temperature;BMP_pressure;BME280_temperature;BME280_humidity;BME280_pressure;Samples;Min_cycle;Max_cycle;Signal;HPM_P1;HPM_P2
2022/10/22 00:01:27;;;;;;;10.57;3.67;;;;;;;12.86;100.00;100836.38;5090258;28;20061;-72
2022/10/22 00:03:52;;;;;;;8.65;4.28;;;;;;;12.83;100.00;100834.97;5089760;28;20059;-72
2022/10/22 00:06:17;;;;;;;5.32;3.20;;;;;;;12.73;100.00;100831.91;5089876;28;20082;-72
2022/10/22 00:08:43;;;;;;;9.52;4.63;;;;;;;12.77;100.00;100840.34;5089626;28;20031;-72
2022/10/22 00:11:13;;;;;;;8.90;4.07;;;;;;;12.74;100.00;100836.25;5089950;28;20036;-72
2022/10/22 00:13:39;;;;;;;5.10;3.42;;;;;;;12.72;100.00;100844.47;5089989;28;20024;-71
2022/10/22 00:16:05;;;;;;;6.25;3.70;;;;;;;12.71;100.00;100834.81;5090068;28;20111;-72
2022/10/22 00:18:30;;;;;;;11.13;4.35;;;;;;;12.70;100.00;100827.78;5090031;28;20062;-72
2022/10/22 00:20:55;;;;;;;7.75;3.55;;;;;;;12.68;100.00;100832.56;5089822;28;20024;-72
2022/10/22 00:23:21;;;;;;;8.65;4.13;;;;;;;12.70;100.00;100835.81;5089704;28;20115;-72
2022/10/22 00:25:46;;;;;;;8.90;3.78;;;;;;;12.64;100.00;100831.31;5089765;28;20035;-72
2022/10/22 00:28:12;;;;;;;12.70;4.40;;;;;;;12.63;100.00;100837.72;5089271;28;20031;-72
2022/10/22 00:30:37;;;;;;;8.70;4.47;;;;;;;12.63;100.00;100835.03;5089635;28;20036;-72
2022/10/22 00:33:03;;;;;;;11.85;4.07;;;;;;;12.62;100.00;100830.72;5089069;28;20089;-72
2022/10/22 00:35:28;;;;;;;8.88;4.20;;;;;;;12.64;100.00;100838.53;5089690;28;20055;-72
2022/10/22 00:37:53;;;;;;;7.13;3.80;;;;;;;12.62;100.00;100833.38;5089943;28;20483;-72
2022/10/22 00:40:19;;;;;;;7.95;4.72;;;;;;;12.61;100.00;100834.44;5089606;28;20028;-73
2022/10/22 00:42:44;;;;;;;8.20;4.85;;;;;;;12.61;100.00;100837.09;5089645;28;20042;-72
2022/10/22 00:45:09;;;;;;;8.25;3.97;;;;;;;12.62;100.00;100835.25;5089353;28;20059;-72
2022/10/22 00:47:40;;;;;;;11.27;4.27;;;;;;;12.53;100.00;100837.34;5089604;28;20024;-72
2022/10/22 00:50:10;;;;;;;8.23;4.75;;;;;;;12.58;100.00;100837.53;5089556;28;20491;-72
2022/10/22 00:52:35;;;;;;;8.32;4.05;;;;;;;12.59;100.00;100843.69;5089390;28;20039;-72
2022/10/22 00:55:01;;;;;;;8.18;4.10;;;;;;;12.58;100.00;100844.75;5089522;28;20367;-72
2022/10/22 00:57:27;;;;;;;8.68;3.80;;;;;;;12.57;100.00;100832.38;5089253;28;20035;-70
2022/10/22 00:59:54;;;;;;;9.63;3.50;;;;;;;12.56;100.00;100842.25;5088867;28;20032;-70
2022/10/22 01:02:20;;;;;;;10.15;4.68;;;;;;;12.57;100.00;100835.06;5088980;28;20051;-69
2022/10/22 01:04:45;;;;;;;8.05;4.18;;;;;;;12.55;100.00;100829.09;5089312;28;20070;-70
2022/10/22 01:07:16;;;;;;;7.05;4.35;;;;;;;12.55;100.00;100835.28;5088848;28;20510;-69
2022/10/22 01:09:46;;;;;;;11.25;4.88;;;;;;;12.53;100.00;100837.34;5089207;28;20032;-70
2022/10/22 01:12:36;;;;;;;10.45;4.32;;;;;;;12.54;100.00;100849.66;5088977;28;20530;-70
2022/10/22 01:15:06;;;;;;;12.90;4.75;;;;;;;12.54;100.00;100843.50;5088526;28;20040;-70
2022/10/22 01:17:59;;;;;;;5.70;3.88;;;;;;;12.52;100.00;100833.00;5089079;28;20032;-70
2022/10/22 01:20:55;;;;;;;10.90;4.85;;;;;;;12.55;100.00;100829.94;5088838;28;20036;-69
2022/10/22 01:23:42;;;;;;;11.70;5.55;;;;;;;12.57;100.00;100824.34;5089214;28;20016;-69
2022/10/22 01:26:26;;;;;;;9.30;4.53;;;;;;;12.57;100.00;100822.50;5089102;28;20112;-70
2022/10/22 01:29:01;;;;;;;9.88;4.32;;;;;;;12.59;100.00;100823.09;5089634;28;20024;-72
2022/10/22 01:31:32;;;;;;;11.00;6.38;;;;;;;12.57;100.00;100825.16;5089672;28;20024;-72
2022/10/22 01:33:59;;;;;;;14.20;6.72;;;;;;;12.56;100.00;100828.88;5089235;28;20050;-72
2022/10/22 01:36:26;;;;;;;13.18;6.82;;;;;;;12.56;100.00;100828.06;5088987;28;20443;-72
2022/10/22 01:38:53;;;;;;;14.40;7.63;;;;;;;12.57;100.00;100832.38;5088826;28;20034;-72
2022/10/22 01:41:18;;;;;;;12.38;6.30;;;;;;;12.58;100.00;100831.38;5089049;28;20143;-72
2022/10/22 01:43:44;;;;;;;11.98;6.60;;;;;;;12.57;100.00;100824.34;5089964;28;20597;-72
2022/10/22 01:46:10;;;;;;;13.55;5.72;;;;;;;12.56;100.00;100825.41;5092854;28;20035;-72
2022/10/22 01:49:04;;;;;;;10.20;6.15;;;;;;;12.55;100.00;100826.41;5092808;28;20059;-72
2022/10/22 01:51:42;;;;;;;14.25;6.20;;;;;;;12.56;100.00;100830.75;5092787;28;20035;-72
2022/10/22 01:54:29;;;;;;;13.75;5.78;;;;;;;12.53;100.00;100823.97;5092693;28;20105;-72
2022/10/22 01:57:27;;;;;;;13.75;6.43;;;;;;;12.52;100.00;100826.84;5092620;28;20024;-72
2022/10/22 02:00:03;;;;;;;10.52;5.30;;;;;;;12.50;100.00;100827.06;5092530;28;20391;-72
2022/10/22 02:02:34;;;;;;;14.35;6.30;;;;;;;12.48;100.00;100819.22;5092248;28;20073;-72
2022/10/22 02:05:06;;;;;;;19.52;5.97;;;;;;;12.50;100.00;100816.38;5092475;28;20112;-72
2022/10/22 02:07:51;;;;;;;11.15;5.20;;;;;;;12.49;100.00;100817.38;5092147;28;20031;-72
2022/10/22 02:10:18;;;;;;;17.63;6.30;;;;;;;12.47;100.00;100830.13;5092168;28;20115;-72
2022/10/22 02:12:47;;;;;;;10.43;6.65;;;;;;;12.43;100.00;100826.25;5092041;28;20077;-72
2022/10/22 02:15:15;;;;;;;13.10;6.05;;;;;;;12.43;100.00;100823.56;5092111;28;20046;-72
2022/10/22 02:17:44;;;;;;;13.85;5.95;;;;;;;12.42;100.00;100821.94;5092315;28;20934;-72
2022/10/22 02:20:25;;;;;;;11.80;6.35;;;;;;;12.42;100.00;100824.63;5092217;28;20031;-72
2022/10/22 02:22:51;;;;;;;13.77;6.63;;;;;;;12.40;100.00;100822.13;5092120;28;20445;-71
2022/10/22 02:25:16;;;;;;;13.20;6.60;;;;;;;12.32;100.00;100811.66;5092095;28;20471;-72
2022/10/22 02:28:07;;;;;;;13.38;7.20;;;;;;;12.40;100.00;100818.66;5092035;28;20032;-72
2022/10/22 02:30:34;;;;;;;13.60;6.50;;;;;;;12.38;100.00;100818.84;5091610;28;20077;-71
2022/10/22 02:33:22;;;;;;;10.07;6.22;;;;;;;12.39;100.00;100827.69;5091704;28;20032;-71
2022/10/22 02:35:49;;;;;;;14.13;5.90;;;;;;;12.36;100.00;100826.25;5091962;28;20043;-66
2022/10/22 02:38:15;;;;;;;13.80;5.30;;;;;;;12.33;100.00;100820.50;5091492;28;20145;-65
2022/10/22 02:40:41;;;;;;;13.32;6.03;;;;;;;12.30;100.00;100815.56;5091885;28;20071;-65
2022/10/22 02:43:06;;;;;;;13.32;7.07;;;;;;;12.30;100.00;100826.28;5091180;28;20468;-66
2022/10/22 02:45:33;;;;;;;10.95;6.15;;;;;;;12.31;100.00;100820.69;5091579;28;20513;-65
2022/10/22 02:47:59;;;;;;;11.60;5.65;;;;;;;12.31;100.00;100822.56;5091539;28;20020;-65
2022/10/22 02:50:24;;;;;;;13.93;6.97;;;;;;;12.29;100.00;100817.44;5091541;28;20062;-65
2022/10/22 02:52:49;;;;;;;9.77;5.25;;;;;;;12.30;100.00;100827.09;5091673;28;20138;-65
2022/10/22 02:55:15;;;;;;;17.15;7.07;;;;;;;12.28;100.00;100829.97;5090803;28;20063;-71
2022/10/22 02:57:40;;;;;;;15.25;6.90;;;;;;;12.25;100.00;100821.53;5091412;28;20032;-71
2022/10/22 03:00:07;;;;;;;10.75;5.43;;;;;;;12.26;100.00;100840.06;5091260;28;20035;-71
2022/10/22 03:02:33;;;;;;;10.57;5.07;;;;;;;12.26;100.00;100836.53;5091369;28;20028;-71
2022/10/22 03:04:58;;;;;;;11.43;6.50;;;;;;;12.24;100.00;100831.44;5091294;28;20038;-71
2022/10/22 03:07:23;;;;;;;18.40;6.22;;;;;;;12.24;100.00;100838.63;5091607;28;20071;-71
2022/10/22 03:09:49;;;;;;;10.52;4.90;;;;;;;12.23;100.00;100839.66;5090844;28;20058;-71
2022/10/22 03:12:14;;;;;;;10.95;5.82;;;;;;;12.21;100.00;100831.84;5091044;28;20483;-71
2022/10/22 03:14:39;;;;;;;10.25;5.15;;;;;;;12.21;100.00;100831.84;5090749;28;20071;-71
2022/10/22 03:17:05;;;;;;;9.32;4.95;;;;;;;12.22;100.00;100840.69;5091084;28;20064;-71
2022/10/22 03:19:30;;;;;;;15.13;5.50;;;;;;;12.20;100.00;100840.88;5091067;28;20023;-71
2022/10/22 03:22:08;;;;;;;11.80;5.22;;;;;;;12.17;100.00;100843.97;5091067;28;20032;-71
2022/10/22 03:24:41;;;;;;;9.80;4.90;;;;;;;12.19;100.00;100839.25;5090866;28;20148;-71
2022/10/22 03:27:07;;;;;;;13.32;6.00;;;;;;;12.16;100.00;100837.00;5090833;28;20024;-71
2022/10/22 03:29:36;;;;;;;11.77;4.93;;;;;;;12.19;100.00;100847.28;5090573;28;20059;-71
2022/10/22 03:32:01;;;;;;;8.82;4.45;;;;;;;12.17;100.00;100848.50;5090775;28;20115;-71
2022/10/22 03:34:26;;;;;;;9.02;4.47;;;;;;;12.16;100.00;100849.53;5090883;28;20461;-71
2022/10/22 03:36:53;;;;;;;14.65;5.65;;;;;;;12.14;100.00;100844.41;5090791;28;20055;-71
2022/10/22 03:39:19;;;;;;;10.65;4.85;;;;;;;12.14;100.00;100841.72;5090434;28;20047;-71
2022/10/22 03:41:46;;;;;;;14.35;5.75;;;;;;;12.15;100.00;100853.22;5090679;28;20101;-71
2022/10/22 03:44:12;;;;;;;9.68;3.90;;;;;;;12.14;100.00;100854.28;5090335;28;20985;-71
2022/10/22 03:46:37;;;;;;;8.13;4.35;;;;;;;12.15;100.00;100856.72;5090567;28;20026;-71
2022/10/22 03:49:03;;;;;;;9.65;4.88;;;;;;;12.15;100.00;100851.38;5090595;28;20024;-71
2022/10/22 03:51:28;;;;;;;12.52;4.95;;;;;;;12.17;100.00;100868.03;5090455;28;20032;-71
2022/10/22 03:53:53;;;;;;;7.97;3.83;;;;;;;12.19;100.00;100862.50;5090490;28;20060;-71
2022/10/22 03:56:19;;;;;;;11.55;4.60;;;;;;;12.19;100.00;100873.19;5090777;28;20060;-71
2022/10/22 03:58:45;;;;;;;9.00;4.18;;;;;;;12.17;100.00;100870.72;5091852;28;20032;-71
2022/10/22 04:01:11;;;;;;;7.18;4.10;;;;;;;12.19;100.00;100879.34;5090344;28;20034;-71
2022/10/22 04:03:37;;;;;;;10.35;3.83;;;;;;;12.20;100.00;100877.50;5090276;28;20102;-71
2022/10/22 04:06:11;;;;;;;11.18;4.00;;;;;;;12.21;100.00;100879.16;5090067;28;20063;-71
2022/10/22 04:08:39;;;;;;;11.13;4.15;;;;;;;12.23;100.00;100874.41;5088976;28;20043;-71
2022/10/22 04:11:04;;;;;;;11.52;4.32;;;;;;;12.20;100.00;100883.66;5089827;28;20491;-72
2022/10/22 04:13:30;;;;;;;9.00;3.85;;;;;;;12.17;100.00;100869.91;5089841;28;20039;-71
2022/10/22 04:15:55;;;;;;;11.00;4.25;;;;;;;12.17;100.00;100884.06;5088231;28;20077;-71
2022/10/22 04:18:22;;;;;;;9.02;4.43;;;;;;;12.16;100.00;100884.31;5090029;28;20047;-71
2022/10/22 04:20:50;;;;;;;11.60;4.75;;;;;;;12.15;100.00;100886.13;5089971;28;20028;-71
2022/10/22 04:23:15;;;;;;;11.30;3.88;;;;;;;12.15;100.00;100886.13;5089797;28;20027;-71
2022/10/22 04:25:40;;;;;;;9.00;3.80;;;;;;;12.15;100.00;100882.63;5089758;28;20024;-71
2022/10/22 04:28:07;;;;;;;7.20;4.10;;;;;;;12.10;100.00;100875.22;5089892;28;20031;-71
2022/10/22 04:30:33;;;;;;;9.20;4.15;;;;;;;12.12;100.00;100888.41;5089409;28;20039;-71
2022/10/22 04:32:58;;;;;;;6.80;4.35;;;;;;;12.15;100.00;100890.66;5089752;28;20039;-71
2022/10/22 04:35:23;;;;;;;5.22;2.80;;;;;;;12.16;100.00;100890.47;5089706;28;20019;-72
2022/10/22 04:37:49;;;;;;;9.15;3.53;;;;;;;12.18;100.00;100887.56;5089495;28;20120;-71
2022/10/22 04:40:14;;;;;;;6.70;3.78;;;;;;;12.18;100.00;100890.25;5089677;28;20028;-71
2022/10/22 04:42:39;;;;;;;9.40;3.88;;;;;;;12.19;100.00;100889.22;5089633;28;20103;-71
2022/10/22 04:45:05;;;;;;;12.80;3.72;;;;;;;12.20;100.00;100891.69;5089356;28;20678;-71
2022/10/22 04:47:30;;;;;;;12.18;4.65;;;;;;;12.22;100.00;100886.16;5089312;28;20112;-71
2022/10/22 04:49:55;;;;;;;9.52;4.40;;;;;;;12.25;100.00;100888.41;5088053;28;20487;-71
2022/10/22 04:52:21;;;;;;;9.50;3.42;;;;;;;12.26;100.00;100892.69;5088804;28;20070;-71
2022/10/22 04:54:46;;;;;;;8.00;4.05;;;;;;;12.27;100.00;100895.19;5089424;28;20056;-71
2022/10/22 04:57:13;;;;;;;9.45;3.33;;;;;;;12.26;100.00;100898.91;5089545;28;20487;-71
2022/10/22 04:59:38;;;;;;;8.80;3.80;;;;;;;12.26;100.00;100892.69;5089516;28;20051;-71
2022/10/22 05:02:04;;;;;;;10.27;3.85;;;;;;;12.27;100.00;100897.03;5089438;28;20156;-71
2022/10/22 05:04:29;;;;;;;9.63;3.95;;;;;;;12.27;100.00;100903.22;5089053;28;20048;-72
2022/10/22 05:06:55;;;;;;;9.70;3.88;;;;;;;12.27;100.00;100903.22;5089360;28;20395;-71
2022/10/22 05:09:20;;;;;;;10.95;4.15;;;;;;;12.28;100.00;100904.84;5089252;28;20027;-70
2022/10/22 05:11:49;;;;;;;10.05;3.80;;;;;;;12.27;100.00;100903.22;5088883;28;20873;-71
2022/10/22 05:14:18;;;;;;;13.80;5.68;;;;;;;12.26;100.00;100904.25;5089296;28;20031;-71
2022/10/22 05:16:46;;;;;;;11.70;4.88;;;;;;;12.26;100.00;100908.75;5089244;28;20016;-71
2022/10/22 05:19:16;;;;;;;11.68;4.82;;;;;;;12.23;100.00;100901.97;5091093;28;20090;-71
2022/10/22 05:21:41;;;;;;;10.50;4.43;;;;;;;12.24;100.00;100903.63;5093362;28;20062;-71
2022/10/22 05:24:07;;;;;;;13.85;4.32;;;;;;;12.22;100.00;100902.19;5093321;28;20443;-65
2022/10/22 05:26:32;;;;;;;8.30;3.70;;;;;;;12.25;100.00;100904.44;5093318;28;20039;-66
2022/10/22 05:28:58;;;;;;;10.82;4.18;;;;;;;12.25;100.00;100902.59;5093064;28;20066;-65
2022/10/22 05:31:23;;;;;;;8.02;3.85;;;;;;;12.23;100.00;100899.28;5092802;28;20475;-65
2022/10/22 05:33:48;;;;;;;12.50;4.32;;;;;;;12.28;100.00;100902.16;5093139;28;20644;-65
2022/10/22 05:36:17;;;;;;;10.30;3.70;;;;;;;12.31;100.00;100910.81;5093027;28;20031;-65
2022/10/22 05:38:43;;;;;;;7.88;3.55;;;;;;;12.30;100.00;100907.31;5093042;28;20020;-65
2022/10/22 05:41:12;;;;;;;10.05;3.40;;;;;;;12.35;100.00;100912.88;5093087;28;20028;-66
2022/10/22 05:43:37;;;;;;;13.52;3.95;;;;;;;12.38;100.00;100906.28;5092485;28;20114;-65
2022/10/22 05:46:06;;;;;;;12.45;3.80;;;;;;;12.36;100.00;100905.66;5092818;28;20032;-65
2022/10/22 05:48:31;;;;;;;8.35;3.40;;;;;;;12.43;100.00;100912.66;5092650;28;20028;-65
2022/10/22 05:51:03;;;;;;;11.68;4.85;;;;;;;12.44;100.00;100917.00;5092798;28;20031;-65
2022/10/22 05:53:29;;;;;;;3.72;3.08;;;;;;;12.44;100.00;100919.69;5092856;28;20020;-65
2022/10/22 05:55:54;;;;;;;8.30;3.85;;;;;;;12.39;100.00;100922.16;5092806;28;20028;-65
2022/10/22 05:58:20;;;;;;;9.55;4.03;;;;;;;12.45;100.00;100933.88;5091469;28;20040;-65
2022/10/22 06:00:45;;;;;;;8.18;3.35;;;;;;;12.45;100.00;100936.53;5092641;28;20074;-65
2022/10/22 06:03:10;;;;;;;10.32;4.70;;;;;;;12.44;100.00;100940.22;5092386;28;20055;-65
2022/10/22 06:05:36;;;;;;;9.82;3.72;;;;;;;12.43;100.00;100943.94;5092480;28;20548;-66
2022/10/22 06:08:03;;;;;;;5.95;3.63;;;;;;;12.40;100.00;100942.50;5090825;28;20040;-65
2022/10/22 06:10:28;;;;;;;4.50;2.70;;;;;;;12.41;100.00;100954.03;5092393;28;20024;-65
2022/10/22 06:12:53;;;;;;;9.70;3.67;;;;;;;12.40;100.00;100944.34;5092297;28;20558;-65
2022/10/22 06:15:19;;;;;;;10.10;4.13;;;;;;;12.39;100.00;100953.41;5090740;28;20047;-65
2022/10/22 06:17:45;;;;;;;14.60;3.40;;;;;;;12.39;100.00;100954.25;5092038;28;20138;-65
2022/10/22 06:20:11;;;;;;;6.10;2.83;;;;;;;12.31;100.00;100951.75;5092075;28;20475;-65
2022/10/22 06:22:37;;;;;;;10.73;3.28;;;;;;;12.36;100.00;100964.50;5091987;28;20081;-65
2022/10/22 06:25:03;;;;;;;8.63;2.95;;;;;;;12.35;100.00;100970.91;5093085;28;20031;-66
2022/10/22 06:27:29;;;;;;;14.52;3.53;;;;;;;12.33;100.00;100967.59;5093071;28;20089;-65
2022/10/22 06:29:54;;;;;;;7.50;2.92;;;;;;;12.34;100.00;100970.09;5091011;28;20410;-65
2022/10/22 06:32:19;;;;;;;6.25;2.92;;;;;;;12.36;100.00;100969.84;5091698;28;20050;-65
2022/10/22 06:34:45;;;;;;;11.05;4.03;;;;;;;12.34;100.00;100980.78;5091760;28;20028;-65
2022/10/22 06:37:12;;;;;;;12.18;4.38;;;;;;;12.33;100.00;100981.78;5091757;28;20434;-65
2022/10/22 06:39:38;;;;;;;9.18;3.30;;;;;;;12.34;100.00;100988.81;5091679;28;20089;-65
2022/10/22 06:42:03;;;;;;;9.27;3.33;;;;;;;12.39;100.00;100996.19;5091705;28;20437;-65
2022/10/22 06:44:28;;;;;;;9.93;5.35;;;;;;;12.41;100.00;100994.13;5091522;28;20048;-71
2022/10/22 06:46:54;;;;;;;8.50;3.80;;;;;;;12.42;100.00;101001.97;5091618;28;20097;-71
2022/10/22 06:49:20;;;;;;;9.60;3.00;;;;;;;12.45;100.00;101004.22;5091445;28;20036;-71
2022/10/22 06:51:49;;;;;;;6.47;2.28;;;;;;;12.51;100.00;101007.94;5090323;28;20475;-71
2022/10/22 06:54:15;;;;;;;12.05;4.72;;;;;;;12.52;100.00;101012.25;5091610;28;20028;-71
2022/10/22 06:56:40;;;;;;;7.07;3.75;;;;;;;12.49;100.00;101016.16;5091464;28;20036;-71
2022/10/22 06:59:05;;;;;;;9.02;3.40;;;;;;;12.47;100.00;101020.91;5091376;28;20028;-71
2022/10/22 07:01:33;;;;;;;8.10;3.88;;;;;;;12.51;100.00;101026.66;5091459;28;20032;-65
2022/10/22 07:04:00;;;;;;;8.98;3.40;;;;;;;12.55;100.00;101024.38;5091140;28;20508;-65
2022/10/22 07:06:27;;;;;;;8.40;2.85;;;;;;;12.59;100.00;101021.09;5091183;28;20062;-65
2022/10/22 07:08:53;;;;;;;12.70;4.93;;;;;;;12.60;100.00;101028.13;5091072;28;20027;-65
2022/10/22 07:11:24;;;;;;;9.05;3.45;;;;;;;12.66;100.00;101034.50;5091145;28;20028;-65
2022/10/22 07:13:50;;;;;;;12.85;4.30;;;;;;;12.65;100.00;101033.69;5090946;28;20016;-66
2022/10/22 07:16:17;;;;;;;7.40;2.40;;;;;;;12.67;100.00;101036.94;5090716;28;21046;-64
2022/10/22 07:18:42;;;;;;;6.50;2.92;;;;;;;12.70;100.00;101041.06;5091038;28;20035;-65
2022/10/22 07:21:09;;;;;;;6.63;2.88;;;;;;;12.72;100.00;101050.53;5091101;28;20106;-65
2022/10/22 07:23:34;;;;;;;10.82;3.40;;;;;;;12.75;100.00;101059.19;5090866;28;20063;-71
2022/10/22 07:26:01;;;;;;;9.80;2.88;;;;;;;12.80;100.00;101056.72;5090717;28;20075;-71
2022/10/22 07:28:27;;;;;;;9.85;3.50;;;;;;;12.89;100.00;101058.16;5090468;28;20047;-71
2022/10/22 07:30:53;;;;;;;10.52;3.40;;;;;;;13.00;100.00;101065.56;5090438;28;20034;-71
2022/10/22 07:33:18;;;;;;;13.10;3.05;;;;;;;13.10;100.00;101070.50;5090683;28;20028;-71
2022/10/22 07:35:43;;;;;;;13.75;3.80;;;;;;;13.17;100.00;101065.94;5090438;28;20157;-71
2022/10/22 07:38:09;;;;;;;10.23;2.83;;;;;;;13.23;100.00;101066.97;5091039;28;20040;-71
2022/10/22 07:40:35;;;;;;;9.13;3.55;;;;;;;13.22;100.00;101068.00;5090463;28;20074;-71
2022/10/22 07:43:00;;;;;;;13.55;3.22;;;;;;;13.22;100.00;101068.81;5090334;28;20101;-71
2022/10/22 07:45:26;;;;;;;7.40;3.30;;;;;;;13.22;100.00;101081.41;5088939;28;20138;-71
2022/10/22 07:47:51;;;;;;;5.15;2.40;;;;;;;13.26;100.00;101088.00;5090445;28;20123;-71
2022/10/22 07:50:17;;;;;;;9.07;2.92;;;;;;;13.33;100.00;101078.09;5090421;28;20059;-71
2022/10/22 07:52:43;;;;;;;9.00;2.72;;;;;;;13.42;100.00;101084.91;5090143;28;20102;-71
2022/10/22 07:55:09;;;;;;;25.38;4.00;;;;;;;13.50;100.00;101087.34;5090256;28;20036;-71
2022/10/22 07:57:36;;;;;;;7.82;3.78;;;;;;;13.58;100.00;101081.75;5089729;28;20032;-71
2022/10/22 08:00:03;;;;;;;9.13;3.42;;;;;;;13.71;100.00;101091.63;5089822;28;20032;-71
2022/10/22 08:02:29;;;;;;;10.68;3.05;;;;;;;13.81;100.00;101092.00;5087639;28;20031;-69
2022/10/22 08:04:55;;;;;;;7.00;2.78;;;;;;;13.94;100.00;101093.81;5085392;28;20028;-71
2022/10/22 08:07:21;;;;;;;9.07;3.22;;;;;;;13.97;100.00;101097.94;5085576;28;20371;-66
2022/10/22 08:09:47;;;;;;;8.95;2.50;;;;;;;14.08;100.00;101101.78;5085769;28;20047;-66
2022/10/22 08:12:12;;;;;;;9.88;3.22;;;;;;;14.13;100.00;101110.84;5085534;28;20032;-65
2022/10/22 08:14:37;;;;;;;8.20;3.25;;;;;;;14.23;100.00;101118.44;5085647;28;20111;-64
2022/10/22 08:17:03;;;;;;;9.80;3.25;;;;;;;14.25;100.00;101116.34;5085309;28;20036;-64
2022/10/22 08:19:31;;;;;;;5.90;3.13;;;;;;;14.24;100.00;101109.34;5089823;28;20032;-65
2022/10/22 08:21:57;;;;;;;9.10;2.70;;;;;;;14.22;100.00;101114.09;5089812;28;20387;-65
2022/10/22 08:24:22;;;;;;;12.95;3.67;;;;;;;14.32;100.00;101121.69;5089849;28;20028;-64
2022/10/22 08:26:47;;;;;;;16.33;4.22;;;;;;;14.40;100.00;101124.13;5089631;28;20115;-64
2022/10/22 08:29:13;;;;;;;15.98;3.67;;;;;;;14.44;100.00;101126.16;5089626;28;20036;-64
2022/10/22 08:31:38;;;;;;;8.85;2.75;;;;;;;14.53;100.00;101115.19;5089367;28;20020;-65
2022/10/22 08:34:04;;;;;;;5.07;2.78;;;;;;;14.60;100.00;101124.03;5089582;28;20047;-64
2022/10/22 08:36:30;;;;;;;16.55;3.90;;;;;;;14.67;100.00;101131.00;5089724;28;20038;-64
2022/10/22 08:38:55;;;;;;;11.68;3.53;;;;;;;14.66;100.00;101128.53;5089679;28;20044;-64
2022/10/22 08:41:22;;;;;;;12.95;2.85;;;;;;;14.61;100.00;101129.16;5089149;28;20100;-64
2022/10/22 08:43:56;;;;;;;12.73;2.95;;;;;;;14.60;100.00;101138.28;5089135;28;20078;-64
2022/10/22 08:46:27;;;;;;;9.27;2.38;;;;;;;14.63;100.00;101153.94;5089151;28;20688;-64
2022/10/22 08:48:56;;;;;;;7.88;3.00;;;;;;;14.64;100.00;101160.94;5089484;28;20796;-64
2022/10/22 08:51:26;;;;;;;9.30;2.55;;;;;;;14.71;100.00;101158.22;5089549;28;20066;-65
2022/10/22 08:54:09;;;;;;;10.27;2.58;;;;;;;14.86;100.00;101163.31;5088644;28;20027;-65
2022/10/22 08:56:36;;;;;;;6.03;2.22;;;;;;;14.91;100.00;101166.16;5084254;28;20047;-65
2022/10/22 08:59:10;;;;;;;14.18;2.63;;;;;;;14.93;100.00;101163.25;5084382;28;20080;-65
2022/10/22 09:01:38;;;;;;;8.45;2.33;;;;;;;14.99;100.00;101175.81;5084977;28;20021;-66
2022/10/22 09:04:09;;;;;;;7.50;2.47;;;;;;;15.00;100.00;101172.91;5084959;28;20057;-64
2022/10/22 09:06:37;;;;;;;11.35;3.50;;;;;;;14.93;100.00;101166.75;5084721;28;20070;-70
2022/10/22 09:09:18;;;;;;;13.50;2.63;;;;;;;15.00;100.00;101175.59;5084499;28;20452;-69
2022/10/22 09:11:49;;;;;;;8.37;3.37;;;;;;;15.02;100.00;101184.25;5085164;28;20462;-69
2022/10/22 09:14:18;;;;;;;6.20;2.30;;;;;;;15.02;100.00;101180.75;5085041;28;20734;-70
2022/10/22 09:17:28;;;;;;;7.68;2.95;;;;;;;15.04;100.00;101187.56;5084461;28;21395;-69
2022/10/22 09:20:10;;;;;;;13.80;3.58;;;;;;;15.05;100.00;101191.88;5084866;28;20023;-69
2022/10/22 09:22:49;;;;;;;9.48;2.90;;;;;;;15.06;100.00;101187.31;5084999;28;20409;-70
2022/10/22 09:25:25;;;;;;;5.22;2.03;;;;;;;15.15;100.00;101204.00;5084614;28;20467;-69
2022/10/22 09:27:57;;;;;;;9.13;3.00;;;;;;;15.19;100.00;101203.34;5084520;28;20032;-70
2022/10/22 09:30:28;;;;;;;9.13;2.20;;;;;;;15.22;100.00;101202.94;5085192;28;20028;-70
2022/10/22 09:32:57;;;;;;;10.67;1.93;;;;;;;15.21;100.00;101206.63;5084886;28;20039;-70
2022/10/22 09:35:23;;;;;;;8.05;2.28;;;;;;;15.17;100.00;101216.19;5084139;28;20296;-69
2022/10/22 09:37:54;;;;;;;8.77;2.05;;;;;;;15.15;100.00;101209.38;5084604;28;20020;-70
2022/10/22 09:40:20;;;;;;;10.23;2.30;;;;;;;15.13;100.00;101228.41;5084738;28;20232;-70
2022/10/22 09:42:46;;;;;;;21.92;4.00;;;;;;;15.09;100.00;101224.50;5084520;28;20019;-69
2022/10/22 09:45:18;;;;;;;7.80;3.47;;;;;;;15.09;100.00;101221.81;5084389;28;20052;-69
2022/10/22 09:47:44;;;;;;;8.95;3.80;;;;;;;15.12;100.00;101229.47;5084306;28;20100;-70
2022/10/22 09:50:35;;;;;;;7.13;3.17;;;;;;;15.15;100.00;101229.00;5084660;28;20421;-69
2022/10/22 09:53:16;;;;;;;4.40;2.25;;;;;;;15.23;100.00;101233.31;5084182;28;20095;-69
2022/10/22 09:55:41;;;;;;;7.97;3.42;;;;;;;15.27;100.00;101229.97;5084201;28;20035;-70
2022/10/22 09:58:11;;;;;;;7.72;2.38;;;;;;;15.31;100.00;101235.72;5084080;28;20066;-70
2022/10/22 10:00:40;;;;;;;10.48;2.63;;;;;;;15.32;100.00;101238.16;5084219;28;20524;-70
2022/10/22 10:03:05;;;;;;;7.78;2.20;;;;;;;15.38;100.00;101252.63;5084399;28;20048;-70
2022/10/22 10:05:33;;;;;;;14.35;3.05;;;;;;;15.38;100.00;101252.63;5086018;28;20075;-69
2022/10/22 10:08:11;;;;;;;12.60;2.42;;;;;;;15.42;100.00;101255.69;5087663;28;20020;-69
2022/10/22 10:11:09;;;;;;;7.53;2.78;;;;;;;15.45;100.00;101266.00;5087907;28;20020;-70
2022/10/22 10:13:56;;;;;;;11.30;3.53;;;;;;;15.47;100.00;101271.97;5087777;28;20066;-70
2022/10/22 10:16:44;;;;;;;14.05;3.35;;;;;;;15.45;100.00;101274.88;5088078;28;20028;-70
2022/10/22 10:19:15;;;;;;;8.57;2.20;;;;;;;15.46;100.00;101273.84;5087222;28;20099;-69
2022/10/22 10:21:51;;;;;;;7.22;2.15;;;;;;;15.47;100.00;101274.66;5088004;28;20119;-69
2022/10/22 10:24:47;;;;;;;5.32;1.80;;;;;;;15.47;100.00;101280.88;5087642;28;20085;-69
2022/10/22 10:27:29;;;;;;;9.77;2.65;;;;;;;15.45;100.00;101280.25;5087165;28;20056;-65
2022/10/22 10:30:08;;;;;;;12.55;3.25;;;;;;;15.45;100.00;101285.63;5087768;28;20028;-65
2022/10/22 10:32:54;;;;;;;8.43;2.50;;;;;;;15.50;100.00;101283.09;5087898;28;20019;-65
2022/10/22 10:35:25;;;;;;;10.88;2.78;;;;;;;15.57;100.00;101296.50;5087076;28;20016;-65
2022/10/22 10:38:06;;;;;;;8.65;2.78;;;;;;;15.68;100.00;101290.41;5086948;28;20062;-65
2022/10/22 10:41:15;;;;;;;9.35;2.20;;;;;;;15.78;100.00;101296.16;5087602;28;20468;-65
2022/10/22 10:43:46;;;;;;;11.68;2.20;;;;;;;15.91;100.00;101289.03;5081765;28;20028;-65
2022/10/22 10:46:25;;;;;;;12.48;4.97;;;;;;;15.94;100.00;101293.97;5087170;28;20024;-66
2022/10/22 10:49:08;;;;;;;5.28;2.45;;;;;;;16.00;100.00;101293.06;5086918;28;20144;-65
2022/10/22 10:51:56;;;;;;;9.98;2.25;;;;;;;16.07;99.79;101299.22;5087113;28;20027;-65
2022/10/22 10:54:43;;;;;;;5.85;1.95;;;;;;;16.10;100.00;101298.75;5087495;28;20032;-65
2022/10/22 10:57:14;;;;;;;10.25;3.28;;;;;;;16.13;100.00;101298.31;5087234;28;20028;-65
2022/10/22 10:59:59;;;;;;;8.23;2.95;;;;;;;16.10;99.23;101304.13;5086881;28;20169;-65
2022/10/22 11:03:02;;;;;;;12.73;3.53;;;;;;;16.04;100.00;101304.22;5087517;28;20020;-64
2022/10/22 11:05:47;;;;;;;5.57;3.30;;;;;;;16.08;99.98;101295.47;5075269;28;20483;-65
2022/10/22 11:08:19;;;;;;;7.75;2.40;;;;;;;16.13;99.52;101297.50;5085899;28;20032;-65
2022/10/22 11:10:57;;;;;;;5.75;2.10;;;;;;;16.21;99.17;101295.31;5086861;28;20020;-66
2022/10/22 11:13:37;;;;;;;8.85;3.10;;;;;;;16.31;99.02;101299.38;5086948;28;20028;-64
2022/10/22 11:16:15;;;;;;;10.57;3.30;;;;;;;16.42;98.74;101304.00;5084125;28;20024;-65
2022/10/22 11:19:08;;;;;;;8.88;3.70;;;;;;;16.50;98.15;101301.00;5086392;28;20077;-65
2022/10/22 11:22:26;;;;;;;11.77;3.45;;;;;;;16.58;96.75;101300.75;5078035;28;20036;-65
2022/10/22 11:24:58;;;;;;;9.95;2.78;;;;;;;16.61;94.00;101299.44;5077179;28;20048;-64
2022/10/22 11:27:36;;;;;;;10.32;3.38;;;;;;;16.83;96.37;101297.97;5086417;28;20499;-65